sensor_id;sensor_type;location;lat;lon;timestamp;pressure;altitude;pressure_sealevel;temperature;humidity
47366;BME280;33105;47.964;7.982;2023-09-18T00:01:52;96141.94;;;20.23;63.78
47366;BME280;33105;47.964;7.982;2023-09-18T00:04:53;96154.78;;;20.28;64.25
47366;BME280;33105;47.964;7.982;2023-09-18T00:07:55;96181.81;;;20.31;64.50
47366;BME280;33105;47.964;7.982;2023-09-18T00:10:57;96263.69;;;20.46;63.24
47366;BME280;33105;47.964;7.982;2023-09-18T00:13:59;96322.06;;;20.79;70.38
47366;BME280;33105;47.964;7.982;2023-09-18T00:17:03;96202.34;;;19.59;80.23
47366;BME280;33105;47.964;7.982;2023-09-18T00:20:06;96229.94;;;18.74;90.98
47366;BME280;33105;47.964;7.982;2023-09-18T00:23:09;96176.56;;;18.30;96.43
47366;BME280;33105;47.964;7.982;2023-09-18T00:26:11;96181.72;;;17.97;100.00
47366;BME280;33105;47.964;7.982;2023-09-18T00:29:14;96151.31;;;17.97;100.00
47366;BME280;33105;47.964;7.982;2023-09-18T00:32:16;96132.94;;;17.84;100.00
47366;BME280;33105;47.964;7.982;2023-09-18T00:35:17;96145.59;;;17.85;100.00
47366;BME280;33105;47.964;7.982;2023-09-18T00:38:20;96139.28;;;17.85;100.00
47366;BME280;33105;47.964;7.982;2023-09-18T00:41:22;96137.31;;;17.77;100.00
47366;BME280;33105;47.964;7.982;2023-09-18T00:44:26;96131.81;;;17.77;100.00
47366;BME280;33105;47.964;7.982;2023-09-18T00:47:28;96136.16;;;17.69;100.00
47366;BME280;33105;47.964;7.982;2023-09-18T00:50:31;96153.91;;;17.77;100.00
47366;BME280;33105;47.964;7.982;2023-09-18T00:53:34;96163.31;;;17.76;100.00
47366;BME280;33105;47.964;7.982;2023-09-18T00:56:38;96204.44;;;17.77;100.00
47366;BME280;33105;47.964;7.982;2023-09-18T00:59:41;96226.72;;;17.81;100.00
47366;BME280;33105;47.964;7.982;2023-09-18T01:02:45;96184.78;;;17.87;100.00
47366;BME280;33105;47.964;7.982;2023-09-18T01:05:48;96129.72;;;17.34;100.00
47366;BME280;33105;47.964;7.982;2023-09-18T01:08:51;96162.53;;;17.35;100.00
47366;BME280;33105;47.964;7.982;2023-09-18T01:11:57;96192.13;;;17.44;100.00
47366;BME280;33105;47.964;7.982;2023-09-18T01:15:25;96188.88;;;17.42;100.00
47366;BME280;33105;47.964;7.982;2023-09-18T01:18:28;96201.69;;;17.38;100.00
47366;BME280;33105;47.964;7.982;2023-09-18T01:21:30;96217.09;;;17.30;100.00
47366;BME280;33105;47.964;7.982;2023-09-18T01:24:36;96224.88;;;17.28;100.00
47366;BME280;33105;47.964;7.982;2023-09-18T01:27:38;96233.72;;;17.47;100.00
47366;BME280;33105;47.964;7.982;2023-09-18T01:30:41;96245.78;;;17.51;100.00
47366;BME280;33105;47.964;7.982;2023-09-18T01:33:43;96251.00;;;17.61;100.00
47366;BME280;33105;47.964;7.982;2023-09-18T01:36:46;96257.13;;;17.50;100.00
47366;BME280;33105;47.964;7.982;2023-09-18T01:39:50;96236.06;;;17.23;100.00
47366;BME280;33105;47.964;7.982;2023-09-18T01:42:53;96184.34;;;17.06;100.00
47366;BME280;33105;47.964;7.982;2023-09-18T01:45:55;96160.84;;;17.17;100.00
47366;BME280;33105;47.964;7.982;2023-09-18T01:48:56;96180.34;;;17.21;100.00
47366;BME280;33105;47.964;7.982;2023-09-18T01:51:58;96189.13;;;17.23;100.00
47366;BME280;33105;47.964;7.982;2023-09-18T01:55:01;96201.59;;;17.20;100.00
47366;BME280;33105;47.964;7.982;2023-09-18T01:58:03;96193.66;;;17.19;100.00
47366;BME280;33105;47.964;7.982;2023-09-18T02:01:04;96175.81;;;17.25;100.00
47366;BME280;33105;47.964;7.982;2023-09-18T02:04:07;96172.06;;;17.21;100.00
47366;BME280;33105;47.964;7.982;2023-09-18T02:07:09;96174.00;;;17.20;100.00
47366;BME280;33105;47.964;7.982;2023-09-18T02:10:10;96172.66;;;17.09;100.00
47366;BME280;33105;47.964;7.982;2023-09-18T02:13:13;96198.47;;;17.13;100.00
47366;BME280;33105;47.964;7.982;2023-09-18T02:16:16;96232.28;;;17.19;100.00
47366;BME280;33105;47.964;7.982;2023-09-18T02:19:18;96242.06;;;17.25;100.00
47366;BME280;33105;47.964;7.982;2023-09-18T02:22:23;96255.75;;;17.30;100.00
47366;BME280;33105;47.964;7.982;2023-09-18T02:25:25;96249.56;;;17.33;100.00
47366;BME280;33105;47.964;7.982;2023-09-18T02:28:28;96273.78;;;17.36;100.00
47366;BME280;33105;47.964;7.982;2023-09-18T02:31:30;96291.47;;;17.35;100.00
47366;BME280;33105;47.964;7.982;2023-09-18T02:34:33;96321.31;;;17.24;100.00
47366;BME280;33105;47.964;7.982;2023-09-18T02:37:36;96337.56;;;17.26;100.00
47366;BME280;33105;47.964;7.982;2023-09-18T02:40:38;96352.63;;;17.20;100.00
47366;BME280;33105;47.964;7.982;2023-09-18T02:43:39;96380.09;;;17.25;100.00
47366;BME280;33105;47.964;7.982;2023-09-18T02:46:42;96388.44;;;17.11;100.00
47366;BME280;33105;47.964;7.982;2023-09-18T02:49:46;96399.44;;;17.25;100.00
47366;BME280;33105;47.964;7.982;2023-09-18T02:52:49;96374.97;;;17.32;100.00
47366;BME280;33105;47.964;7.982;2023-09-18T02:55:54;96381.75;;;17.26;100.00
47366;BME280;33105;47.964;7.982;2023-09-18T02:58:58;96379.09;;;17.21;100.00
47366;BME280;33105;47.964;7.982;2023-09-18T03:02:00;96391.00;;;17.08;100.00
47366;BME280;33105;47.964;7.982;2023-09-18T03:05:02;96394.22;;;16.87;100.00
47366;BME280;33105;47.964;7.982;2023-09-18T03:08:05;96392.56;;;16.64;100.00
47366;BME280;33105;47.964;7.982;2023-09-18T03:11:12;96376.59;;;16.61;100.00
47366;BME280;33105;47.964;7.982;2023-09-18T03:14:14;96350.41;;;16.86;100.00
47366;BME280;33105;47.964;7.982;2023-09-18T03:17:17;96331.41;;;16.84;100.00
47366;BME280;33105;47.964;7.982;2023-09-18T03:20:22;96330.53;;;16.97;100.00
47366;BME280;33105;47.964;7.982;2023-09-18T03:23:26;96294.78;;;16.92;100.00
47366;BME280;33105;47.964;7.982;2023-09-18T03:26:30;96293.84;;;16.97;100.00
47366;BME280;33105;47.964;7.982;2023-09-18T03:29:31;96292.44;;;17.08;100.00
47366;BME280;33105;47.964;7.982;2023-09-18T03:32:35;96267.28;;;17.10;100.00
47366;BME280;33105;47.964;7.982;2023-09-18T03:35:51;96245.06;;;17.06;100.00
47366;BME280;33105;47.964;7.982;2023-09-18T03:38:58;96245.31;;;16.96;100.00
47366;BME280;33105;47.964;7.982;2023-09-18T03:42:01;96237.34;;;16.94;100.00
47366;BME280;33105;47.964;7.982;2023-09-18T03:45:04;96224.63;;;16.85;100.00
47366;BME280;33105;47.964;7.982;2023-09-18T03:48:07;96214.38;;;16.63;100.00
47366;BME280;33105;47.964;7.982;2023-09-18T03:51:09;96201.78;;;16.48;100.00
47366;BME280;33105;47.964;7.982;2023-09-18T03:54:11;96197.63;;;16.59;100.00
47366;BME280;33105;47.964;7.982;2023-09-18T03:57:13;96195.34;;;16.53;100.00
47366;BME280;33105;47.964;7.982;2023-09-18T04:00:15;96201.59;;;16.45;100.00
47366;BME280;33105;47.964;7.982;2023-09-18T04:03:18;96197.25;;;16.66;100.00
47366;BME280;33105;47.964;7.982;2023-09-18T04:06:23;96199.50;;;16.64;100.00
47366;BME280;33105;47.964;7.982;2023-09-18T04:09:28;96200.00;;;16.66;100.00
47366;BME280;33105;47.964;7.982;2023-09-18T04:12:29;96198.97;;;16.62;100.00
47366;BME280;33105;47.964;7.982;2023-09-18T04:15:31;96204.13;;;16.55;100.00
47366;BME280;33105;47.964;7.982;2023-09-18T04:18:33;96243.97;;;16.49;100.00
47366;BME280;33105;47.964;7.982;2023-09-18T04:21:36;96257.38;;;16.42;100.00
47366;BME280;33105;47.964;7.982;2023-09-18T04:24:38;96253.44;;;16.56;100.00
47366;BME280;33105;47.964;7.982;2023-09-18T04:27:40;96254.41;;;16.74;100.00
47366;BME280;33105;47.964;7.982;2023-09-18T04:30:43;96248.09;;;16.74;100.00
47366;BME280;33105;47.964;7.982;2023-09-18T04:33:46;96215.16;;;16.55;100.00
47366;BME280;33105;47.964;7.982;2023-09-18T04:36:48;96186.53;;;16.64;100.00
47366;BME280;33105;47.964;7.982;2023-09-18T04:39:52;96189.34;;;16.73;100.00
47366;BME280;33105;47.964;7.982;2023-09-18T04:42:54;96176.09;;;16.39;100.00
47366;BME280;33105;47.964;7.982;2023-09-18T04:45:56;96186.56;;;16.28;100.00
47366;BME280;33105;47.964;7.982;2023-09-18T04:48:59;96183.34;;;16.35;100.00
47366;BME280;33105;47.964;7.982;2023-09-18T04:52:01;96185.06;;;16.45;100.00
47366;BME280;33105;47.964;7.982;2023-09-18T04:55:04;96177.22;;;16.60;100.00
47366;BME280;33105;47.964;7.982;2023-09-18T04:58:07;96179.06;;;16.65;100.00
47366;BME280;33105;47.964;7.982;2023-09-18T05:01:09;96185.59;;;16.69;100.00
47366;BME280;33105;47.964;7.982;2023-09-18T05:04:14;96189.28;;;16.64;100.00
47366;BME280;33105;47.964;7.982;2023-09-18T05:07:17;96201.78;;;16.48;100.00
47366;BME280;33105;47.964;7.982;2023-09-18T05:10:18;96210.25;;;16.52;100.00
47366;BME280;33105;47.964;7.982;2023-09-18T05:13:20;96206.06;;;16.54;100.00
47366;BME280;33105;47.964;7.982;2023-09-18T05:16:21;96209.75;;;16.50;100.00
47366;BME280;33105;47.964;7.982;2023-09-18T05:19:23;96213.88;;;16.61;100.00
47366;BME280;33105;47.964;7.982;2023-09-18T05:22:25;96200.78;;;16.44;100.00
47366;BME280;33105;47.964;7.982;2023-09-18T05:25:29;96215.06;;;16.46;100.00
47366;BME280;33105;47.964;7.982;2023-09-18T05:28:34;96215.59;;;16.48;100.00
47366;BME280;33105;47.964;7.982;2023-09-18T05:31:36;96210.31;;;16.60;100.00
47366;BME280;33105;47.964;7.982;2023-09-18T05:34:38;96222.47;;;16.59;100.00
47366;BME280;33105;47.964;7.982;2023-09-18T05:37:41;96221.03;;;16.62;100.00
47366;BME280;33105;47.964;7.982;2023-09-18T05:40:43;96228.16;;;16.63;100.00
47366;BME280;33105;47.964;7.982;2023-09-18T05:43:46;96245.56;;;16.63;100.00
47366;BME280;33105;47.964;7.982;2023-09-18T05:46:49;96264.03;;;16.63;100.00
47366;BME280;33105;47.964;7.982;2023-09-18T05:49:50;96263.63;;;16.70;100.00
47366;BME280;33105;47.964;7.982;2023-09-18T05:52:53;96283.47;;;16.58;100.00
47366;BME280;33105;47.964;7.982;2023-09-18T05:55:54;96280.78;;;16.30;100.00
47366;BME280;33105;47.964;7.982;2023-09-18T05:58:57;96285.19;;;16.31;100.00
47366;BME280;33105;47.964;7.982;2023-09-18T06:02:00;96283.56;;;16.30;100.00
47366;BME280;33105;47.964;7.982;2023-09-18T06:05:02;96286.00;;;16.32;100.00
47366;BME280;33105;47.964;7.982;2023-09-18T06:08:04;96275.53;;;16.43;100.00
47366;BME280;33105;47.964;7.982;2023-09-18T06:11:07;96285.22;;;16.54;100.00
47366;BME280;33105;47.964;7.982;2023-09-18T06:14:10;96293.59;;;16.49;100.00
47366;BME280;33105;47.964;7.982;2023-09-18T06:17:12;96297.63;;;16.29;100.00
47366;BME280;33105;47.964;7.982;2023-09-18T06:20:13;96300.75;;;16.50;100.00
47366;BME280;33105;47.964;7.982;2023-09-18T06:23:16;96308.56;;;16.70;100.00
47366;BME280;33105;47.964;7.982;2023-09-18T06:26:18;96299.75;;;16.82;100.00
47366;BME280;33105;47.964;7.982;2023-09-18T06:29:19;96309.19;;;16.67;100.00
47366;BME280;33105;47.964;7.982;2023-09-18T06:32:21;96322.78;;;16.63;100.00
47366;BME280;33105;47.964;7.982;2023-09-18T06:35:22;96324.13;;;16.52;100.00
47366;BME280;33105;47.964;7.982;2023-09-18T06:38:24;96329.66;;;16.52;100.00
47366;BME280;33105;47.964;7.982;2023-09-18T06:41:27;96320.06;;;16.50;100.00
47366;BME280;33105;47.964;7.982;2023-09-18T06:44:29;96329.03;;;16.55;100.00
47366;BME280;33105;47.964;7.982;2023-09-18T06:47:31;96330.06;;;16.46;100.00
47366;BME280;33105;47.964;7.982;2023-09-18T06:50:34;96321.63;;;16.28;100.00
47366;BME280;33105;47.964;7.982;2023-09-18T06:53:37;96324.38;;;16.28;100.00
47366;BME280;33105;47.964;7.982;2023-09-18T06:56:38;96317.91;;;16.47;100.00
47366;BME280;33105;47.964;7.982;2023-09-18T06:59:40;96328.84;;;16.52;100.00
47366;BME280;33105;47.964;7.982;2023-09-18T07:02:43;96349.38;;;16.46;100.00
47366;BME280;33105;47.964;7.982;2023-09-18T07:05:44;96346.09;;;16.44;100.00
47366;BME280;33105;47.964;7.982;2023-09-18T07:08:47;96337.66;;;16.26;100.00
47366;BME280;33105;47.964;7.982;2023-09-18T07:11:52;96347.06;;;16.25;100.00
47366;BME280;33105;47.964;7.982;2023-09-18T07:14:53;96350.41;;;16.22;100.00
47366;BME280;33105;47.964;7.982;2023-09-18T07:17:57;96348.13;;;16.38;100.00
47366;BME280;33105;47.964;7.982;2023-09-18T07:20:59;96353.69;;;16.24;100.00
47366;BME280;33105;47.964;7.982;2023-09-18T07:24:02;96341.53;;;16.25;100.00
47366;BME280;33105;47.964;7.982;2023-09-18T07:27:06;96335.94;;;16.17;100.00
47366;BME280;33105;47.964;7.982;2023-09-18T07:30:08;96318.97;;;16.10;100.00
47366;BME280;33105;47.964;7.982;2023-09-18T07:33:14;96326.84;;;16.16;100.00
47366;BME280;33105;47.964;7.982;2023-09-18T07:36:21;96322.34;;;16.20;100.00
47366;BME280;33105;47.964;7.982;2023-09-18T07:39:23;96332.28;;;16.08;100.00
47366;BME280;33105;47.964;7.982;2023-09-18T07:42:26;96336.31;;;16.10;100.00
47366;BME280;33105;47.964;7.982;2023-09-18T07:45:28;96332.97;;;16.27;100.00
47366;BME280;33105;47.964;7.982;2023-09-18T07:48:30;96312.03;;;16.12;100.00
47366;BME280;33105;47.964;7.982;2023-09-18T07:51:33;96308.66;;;16.15;100.00
47366;BME280;33105;47.964;7.982;2023-09-18T07:54:35;96311.53;;;16.10;100.00
47366;BME280;33105;47.964;7.982;2023-09-18T07:57:37;96307.66;;;16.11;100.00
47366;BME280;33105;47.964;7.982;2023-09-18T08:00:40;96328.06;;;16.24;100.00
47366;BME280;33105;47.964;7.982;2023-09-18T08:03:42;96320.00;;;16.27;100.00
47366;BME280;33105;47.964;7.982;2023-09-18T08:06:44;96324.25;;;16.33;100.00
47366;BME280;33105;47.964;7.982;2023-09-18T08:09:46;96329.28;;;16.31;100.00
47366;BME280;33105;47.964;7.982;2023-09-18T08:12:49;96334.56;;;16.42;100.00
47366;BME280;33105;47.964;7.982;2023-09-18T08:15:55;96342.84;;;16.42;100.00
47366;BME280;33105;47.964;7.982;2023-09-18T08:18:58;96328.03;;;16.38;100.00
47366;BME280;33105;47.964;7.982;2023-09-18T08:22:00;96304.03;;;16.38;100.00
47366;BME280;33105;47.964;7.982;2023-09-18T08:25:02;96282.53;;;16.26;100.00
47366;BME280;33105;47.964;7.982;2023-09-18T08:28:05;96288.25;;;16.30;100.00
47366;BME280;33105;47.964;7.982;2023-09-18T08:31:07;96280.84;;;16.39;100.00
47366;BME280;33105;47.964;7.982;2023-09-18T08:34:09;96293.66;;;16.21;100.00
47366;BME280;33105;47.964;7.982;2023-09-18T08:37:11;96317.84;;;16.24;100.00
47366;BME280;33105;47.964;7.982;2023-09-18T08:40:14;96326.63;;;16.26;100.00
47366;BME280;33105;47.964;7.982;2023-09-18T08:43:16;96359.72;;;16.26;100.00
47366;BME280;33105;47.964;7.982;2023-09-18T08:46:19;96395.84;;;16.25;100.00
47366;BME280;33105;47.964;7.982;2023-09-18T08:49:23;96427.38;;;16.19;100.00
47366;BME280;33105;47.964;7.982;2023-09-18T08:52:26;96433.00;;;16.27;100.00
47366;BME280;33105;47.964;7.982;2023-09-18T08:55:29;96441.38;;;16.36;100.00
47366;BME280;33105;47.964;7.982;2023-09-18T08:58:32;96425.13;;;16.34;100.00
47366;BME280;33105;47.964;7.982;2023-09-18T09:01:37;96402.59;;;16.32;100.00
47366;BME280;33105;47.964;7.982;2023-09-18T09:04:39;96380.72;;;16.50;100.00
47366;BME280;33105;47.964;7.982;2023-09-18T09:07:41;96334.81;;;16.18;100.00
47366;BME280;33105;47.964;7.982;2023-09-18T09:10:43;96283.88;;;16.15;100.00
47366;BME280;33105;47.964;7.982;2023-09-18T09:13:46;96257.44;;;16.14;100.00
47366;BME280;33105;47.964;7.982;2023-09-18T09:16:51;96267.72;;;16.22;100.00
47366;BME280;33105;47.964;7.982;2023-09-18T09:20:08;96286.56;;;15.93;100.00
47366;BME280;33105;47.964;7.982;2023-09-18T09:23:10;96299.22;;;15.94;100.00
47366;BME280;33105;47.964;7.982;2023-09-18T09:26:14;96290.94;;;16.08;100.00
47366;BME280;33105;47.964;7.982;2023-09-18T09:29:17;96295.13;;;16.05;100.00
47366;BME280;33105;47.964;7.982;2023-09-18T09:32:21;96283.59;;;15.89;100.00
47366;BME280;33105;47.964;7.982;2023-09-18T09:35:28;96307.88;;;16.01;100.00
47366;BME280;33105;47.964;7.982;2023-09-18T09:38:34;96299.09;;;15.99;100.00
47366;BME280;33105;47.964;7.982;2023-09-18T09:41:36;96301.88;;;15.99;100.00
47366;BME280;33105;47.964;7.982;2023-09-18T09:44:38;96316.63;;;16.17;100.00
47366;BME280;33105;47.964;7.982;2023-09-18T09:47:39;96316.38;;;16.41;100.00
47366;BME280;33105;47.964;7.982;2023-09-18T09:50:47;96334.53;;;16.55;100.00
47366;BME280;33105;47.964;7.982;2023-09-18T09:53:50;96332.69;;;16.64;100.00
47366;BME280;33105;47.964;7.982;2023-09-18T09:56:52;96314.19;;;16.65;100.00
47366;BME280;33105;47.964;7.982;2023-09-18T10:00:05;96313.91;;;16.53;100.00
47366;BME280;33105;47.964;7.982;2023-09-18T10:03:24;96314.56;;;16.36;100.00
47366;BME280;33105;47.964;7.982;2023-09-18T10:06:28;96322.50;;;16.38;100.00
47366;BME280;33105;47.964;7.982;2023-09-18T10:09:34;96321.31;;;16.16;100.00
47366;BME280;33105;47.964;7.982;2023-09-18T10:12:37;96319.06;;;16.32;100.00
47366;BME280;33105;47.964;7.982;2023-09-18T10:15:40;96313.38;;;16.28;100.00
47366;BME280;33105;47.964;7.982;2023-09-18T10:22:24;96278.91;;;16.40;100.00
47366;BME280;33105;47.964;7.982;2023-09-18T10:25:31;96281.25;;;16.46;100.00
47366;BME280;33105;47.964;7.982;2023-09-18T10:28:34;96277.00;;;16.62;100.00
47366;BME280;33105;47.964;7.982;2023-09-18T10:31:38;96287.22;;;16.62;100.00
47366;BME280;33105;47.964;7.982;2023-09-18T10:34:43;96280.22;;;16.56;100.00
47366;BME280;33105;47.964;7.982;2023-09-18T10:37:48;96284.88;;;16.69;100.00
47366;BME280;33105;47.964;7.982;2023-09-18T10:40:51;96313.00;;;16.44;100.00
47366;BME280;33105;47.964;7.982;2023-09-18T10:43:54;96314.22;;;16.51;100.00
47366;BME280;33105;47.964;7.982;2023-09-18T10:47:01;96311.28;;;16.48;100.00
47366;BME280;33105;47.964;7.982;2023-09-18T10:50:05;96310.03;;;16.54;100.00
47366;BME280;33105;47.964;7.982;2023-09-18T10:53:09;96304.00;;;16.65;100.00
47366;BME280;33105;47.964;7.982;2023-09-18T10:56:14;96293.22;;;16.78;100.00
47366;BME280;33105;47.964;7.982;2023-09-18T10:59:18;96298.94;;;16.81;100.00
47366;BME280;33105;47.964;7.982;2023-09-18T11:02:21;96294.41;;;16.85;100.00
47366;BME280;33105;47.964;7.982;2023-09-18T11:05:30;96300.63;;;16.91;100.00
47366;BME280;33105;47.964;7.982;2023-09-18T11:08:35;96285.88;;;17.18;100.00
47366;BME280;33105;47.964;7.982;2023-09-18T11:11:44;96295.13;;;17.44;100.00
47366;BME280;33105;47.964;7.982;2023-09-18T11:18:01;96286.63;;;17.32;100.00
47366;BME280;33105;47.964;7.982;2023-09-18T11:21:10;96289.63;;;17.22;100.00
47366;BME280;33105;47.964;7.982;2023-09-18T11:24:20;96287.06;;;17.25;100.00
47366;BME280;33105;47.964;7.982;2023-09-18T11:27:26;96297.19;;;17.39;100.00
47366;BME280;33105;47.964;7.982;2023-09-18T11:30:53;96309.22;;;17.43;100.00
47366;BME280;33105;47.964;7.982;2023-09-18T11:34:11;96309.69;;;17.14;100.00
47366;BME280;33105;47.964;7.982;2023-09-18T11:37:22;96299.69;;;17.49;100.00
47366;BME280;33105;47.964;7.982;2023-09-18T11:40:31;96296.25;;;17.43;100.00
47366;BME280;33105;47.964;7.982;2023-09-18T11:43:35;96298.22;;;17.74;100.00
47366;BME280;33105;47.964;7.982;2023-09-18T11:46:45;96300.34;;;17.77;100.00
47366;BME280;33105;47.964;7.982;2023-09-18T11:49:51;96286.09;;;17.61;100.00
47366;BME280;33105;47.964;7.982;2023-09-18T11:53:02;96289.25;;;17.68;100.00
47366;BME280;33105;47.964;7.982;2023-09-18T11:56:04;96292.38;;;17.75;100.00
47366;BME280;33105;47.964;7.982;2023-09-18T11:59:12;96287.47;;;17.72;100.00
47366;BME280;33105;47.964;7.982;2023-09-18T12:05:29;96279.94;;;17.64;100.00
47366;BME280;33105;47.964;7.982;2023-09-18T12:08:31;96281.13;;;17.72;100.00
47366;BME280;33105;47.964;7.982;2023-09-18T12:11:35;96284.25;;;17.79;100.00
47366;BME280;33105;47.964;7.982;2023-09-18T12:14:38;96281.91;;;18.03;100.00
47366;BME280;33105;47.964;7.982;2023-09-18T12:17:43;96282.97;;;17.85;100.00
47366;BME280;33105;47.964;7.982;2023-09-18T12:20:48;96275.88;;;18.10;100.00
47366;BME280;33105;47.964;7.982;2023-09-18T12:23:51;96280.16;;;18.24;100.00
47366;BME280;33105;47.964;7.982;2023-09-18T12:26:53;96276.56;;;18.32;100.00
47366;BME280;33105;47.964;7.982;2023-09-18T12:29:59;96275.78;;;18.41;100.00
47366;BME280;33105;47.964;7.982;2023-09-18T12:33:02;96275.28;;;18.30;100.00
47366;BME280;33105;47.964;7.982;2023-09-18T12:36:08;96259.50;;;18.56;100.00
47366;BME280;33105;47.964;7.982;2023-09-18T12:39:10;96251.91;;;18.62;100.00
47366;BME280;33105;47.964;7.982;2023-09-18T12:42:13;96268.97;;;18.64;100.00
47366;BME280;33105;47.964;7.982;2023-09-18T12:45:15;96285.91;;;18.62;100.00
47366;BME280;33105;47.964;7.982;2023-09-18T12:48:17;96279.56;;;18.79;100.00
47366;BME280;33105;47.964;7.982;2023-09-18T12:51:29;96283.28;;;19.09;100.00
47366;BME280;33105;47.964;7.982;2023-09-18T12:54:40;96280.50;;;19.09;100.00
47366;BME280;33105;47.964;7.982;2023-09-18T12:57:44;96277.75;;;18.92;100.00
47366;BME280;33105;47.964;7.982;2023-09-18T13:00:47;96272.53;;;19.08;100.00
47366;BME280;33105;47.964;7.982;2023-09-18T13:03:54;96277.63;;;18.71;100.00
47366;BME280;33105;47.964;7.982;2023-09-18T13:07:08;96268.03;;;18.77;100.00
47366;BME280;33105;47.964;7.982;2023-09-18T13:10:10;96259.50;;;19.08;100.00
47366;BME280;33105;47.964;7.982;2023-09-18T13:13:17;96254.16;;;18.94;100.00
47366;BME280;33105;47.964;7.982;2023-09-18T13:16:22;96250.91;;;18.92;100.00
47366;BME280;33105;47.964;7.982;2023-09-18T13:19:24;96255.16;;;18.73;100.00
47366;BME280;33105;47.964;7.982;2023-09-18T13:22:26;96251.41;;;18.60;100.00
47366;BME280;33105;47.964;7.982;2023-09-18T13:25:30;96243.75;;;18.74;100.00
47366;BME280;33105;47.964;7.982;2023-09-18T13:28:34;96241.47;;;18.85;100.00
47366;BME280;33105;47.964;7.982;2023-09-18T13:31:36;96240.34;;;18.60;100.00
47366;BME280;33105;47.964;7.982;2023-09-18T13:34:39;96245.06;;;18.68;100.00
47366;BME280;33105;47.964;7.982;2023-09-18T13:37:41;96232.16;;;18.38;100.00
47366;BME280;33105;47.964;7.982;2023-09-18T13:40:46;96232.16;;;18.38;100.00
47366;BME280;33105;47.964;7.982;2023-09-18T13:43:49;96242.94;;;18.74;99.91
47366;BME280;33105;47.964;7.982;2023-09-18T13:46:56;96246.34;;;18.62;96.45
47366;BME280;33105;47.964;7.982;2023-09-18T13:49:59;96249.72;;;18.16;100.00
47366;BME280;33105;47.964;7.982;2023-09-18T13:53:02;96244.97;;;18.08;100.00
47366;BME280;33105;47.964;7.982;2023-09-18T13:56:05;96235.97;;;17.76;100.00
47366;BME280;33105;47.964;7.982;2023-09-18T13:59:07;96230.72;;;17.35;100.00
47366;BME280;33105;47.964;7.982;2023-09-18T14:02:08;96240.44;;;17.24;100.00
47366;BME280;33105;47.964;7.982;2023-09-18T14:05:11;96234.63;;;17.34;100.00
47366;BME280;33105;47.964;7.982;2023-09-18T14:08:13;96230.59;;;17.31;100.00
47366;BME280;33105;47.964;7.982;2023-09-18T14:11:15;96235.50;;;17.43;100.00
47366;BME280;33105;47.964;7.982;2023-09-18T14:14:22;96219.69;;;17.66;98.69
47366;BME280;33105;47.964;7.982;2023-09-18T14:17:24;96223.28;;;17.75;99.20
47366;BME280;33105;47.964;7.982;2023-09-18T14:20:26;96219.06;;;17.78;100.00
47366;BME280;33105;47.964;7.982;2023-09-18T14:23:27;96221.34;;;17.76;100.00
47366;BME280;33105;47.964;7.982;2023-09-18T14:26:30;96196.56;;;18.27;91.38
47366;BME280;33105;47.964;7.982;2023-09-18T14:29:31;96206.13;;;18.04;98.10
47366;BME280;33105;47.964;7.982;2023-09-18T14:32:34;96183.97;;;17.87;100.00
47366;BME280;33105;47.964;7.982;2023-09-18T14:35:37;96195.72;;;18.10;100.00
47366;BME280;33105;47.964;7.982;2023-09-18T14:38:39;96184.28;;;17.85;100.00
47366;BME280;33105;47.964;7.982;2023-09-18T14:41:42;96183.16;;;17.78;100.00
47366;BME280;33105;47.964;7.982;2023-09-18T14:44:43;96184.91;;;17.65;100.00
47366;BME280;33105;47.964;7.982;2023-09-18T14:47:48;96184.88;;;17.56;100.00
47366;BME280;33105;47.964;7.982;2023-09-18T14:50:56;96180.63;;;17.59;100.00
47366;BME280;33105;47.964;7.982;2023-09-18T14:53:59;96172.78;;;17.44;100.00
47366;BME280;33105;47.964;7.982;2023-09-18T14:57:01;96187.72;;;17.43;100.00
47366;BME280;33105;47.964;7.982;2023-09-18T15:00:04;96172.75;;;17.83;100.00
47366;BME280;33105;47.964;7.982;2023-09-18T15:03:07;96163.34;;;18.10;96.71
47366;BME280;33105;47.964;7.982;2023-09-18T15:06:09;96152.94;;;18.76;90.04
47366;BME280;33105;47.964;7.982;2023-09-18T15:09:11;96142.22;;;18.49;89.29
47366;BME280;33105;47.964;7.982;2023-09-18T15:12:14;96153.44;;;18.52;91.27
47366;BME280;33105;47.964;7.982;2023-09-18T15:15:15;96152.09;;;18.58;87.69
47366;BME280;33105;47.964;7.982;2023-09-18T15:18:18;96152.72;;;18.90;82.71
47366;BME280;33105;47.964;7.982;2023-09-18T15:21:20;96132.72;;;18.84;88.62
47366;BME280;33105;47.964;7.982;2023-09-18T15:24:22;96127.22;;;18.67;88.70
47366;BME280;33105;47.964;7.982;2023-09-18T15:27:23;96120.72;;;18.63;85.26
47366;BME280;33105;47.964;7.982;2023-09-18T15:30:26;96116.13;;;18.58;85.09
47366;BME280;33105;47.964;7.982;2023-09-18T15:33:28;96121.78;;;18.88;86.57
47366;BME280;33105;47.964;7.982;2023-09-18T15:36:31;96115.66;;;18.56;90.85
47366;BME280;33105;47.964;7.982;2023-09-18T15:39:33;96117.63;;;18.39;98.62
47366;BME280;33105;47.964;7.982;2023-09-18T15:42:37;96105.75;;;18.64;87.74
47366;BME280;33105;47.964;7.982;2023-09-18T15:45:40;96102.00;;;18.60;93.66
47366;BME280;33105;47.964;7.982;2023-09-18T15:48:43;96101.91;;;18.30;100.00
47366;BME280;33105;47.964;7.982;2023-09-18T15:51:45;96106.09;;;18.36;90.84
47366;BME280;33105;47.964;7.982;2023-09-18T15:54:48;96107.38;;;18.39;93.71
47366;BME280;33105;47.964;7.982;2023-09-18T15:57:52;96115.88;;;17.91;100.00
47366;BME280;33105;47.964;7.982;2023-09-18T16:00:54;96106.25;;;18.31;94.01
47366;BME280;33105;47.964;7.982;2023-09-18T16:03:58;96110.50;;;18.20;92.54
47366;BME280;33105;47.964;7.982;2023-09-18T16:07:00;96106.13;;;18.19;88.88
47366;BME280;33105;47.964;7.982;2023-09-18T16:10:03;96112.28;;;18.16;89.86